Terminal Aerodrome Forecast
Issued by NWS Northern Indiana

Home | Current Version | Previous Version | Text Only | Print | Product List | Glossary Off
Versions: 1 2 3 4 5 6 7 8 9 10 11 12 13 14

000
FTUS43 KIWX 012200 AAA
TAFFWA
TAF AMD
KFWA 012211Z 0122/0218 35010KT P6SM BKN250
     FM020000 VRB02KT P6SM SCT250
      TEMPO 0209/0213 4SM BR
     FM021600 03004KT P6SM SCT050=

USA.gov is the U.S. government's official web portal to all federal, state and local government web resources and services.